Time;durP1;ratioP1;P1;durP2;ratioP2;P2;SDS_P1;SDS_P2;PMS_P1;PMS_P2;Temp;Humidity;BMP_temperature;BMP_pressure;BME280_temperature;BME280_humidity;BME280_pressure;Samples;Min_cycle;Max_cycle;Signal;HPM_P1;HPM_P2
2024/01/19 00:01:38;;;;;;;1506.60;999.90;;;26.10;99.90;;;;;;5058172;28;20047;-69
2024/01/19 00:04:05;;;;;;;1507.93;999.90;;;26.20;99.90;;;;;;5063861;28;20523;-72
2024/01/19 00:06:32;;;;;;;1494.88;999.90;;;26.20;99.90;;;;;;5069235;28;20129;-71
2024/01/19 00:08:58;;;;;;;1499.38;999.90;;;26.20;99.90;;;;;;5074112;28;20378;-71
2024/01/19 00:11:25;;;;;;;1511.18;999.90;;;26.20;99.90;;;;;;5073963;28;20025;-71
2024/01/19 00:13:51;;;;;;;1514.70;999.90;;;26.20;99.90;;;;;;5073877;28;20019;-71
2024/01/19 00:16:18;;;;;;;1514.50;999.90;;;26.20;99.90;;;;;;5073968;28;20104;-70
2024/01/19 00:18:45;;;;;;;1509.00;999.90;;;26.20;99.90;;;;;;5074108;28;20031;-71
2024/01/19 00:21:11;;;;;;;1504.88;999.90;;;26.20;99.90;;;;;;5073689;28;20385;-71
2024/01/19 00:23:39;;;;;;;1509.10;999.90;;;26.30;99.90;;;;;;5073855;28;20090;-69
2024/01/19 00:26:06;;;;;;;1511.32;999.90;;;26.30;99.90;;;;;;5073633;28;20044;-71
2024/01/19 00:28:33;;;;;;;1502.13;999.90;;;26.30;99.90;;;;;;5073768;28;20017;-72
2024/01/19 00:30:59;;;;;;;1497.40;999.90;;;26.30;99.90;;;;;;5073776;28;20025;-71
2024/01/19 00:33:26;;;;;;;1511.18;999.90;;;26.30;99.90;;;;;;5073783;28;20036;-71
2024/01/19 00:35:52;;;;;;;1492.15;999.90;;;26.30;99.90;;;;;;5073663;28;20030;-69
2024/01/19 00:38:19;;;;;;;1501.93;999.90;;;26.20;99.90;;;;;;5073458;28;20048;-71
2024/01/19 00:40:45;;;;;;;1486.57;999.90;;;26.30;99.90;;;;;;5073654;28;20047;-71
2024/01/19 00:43:12;;;;;;;1472.28;999.90;;;26.30;99.90;;;;;;5073597;28;20028;-70
2024/01/19 00:45:39;;;;;;;1507.78;999.90;;;26.40;99.90;;;;;;5073259;28;20137;-69
2024/01/19 00:48:05;;;;;;;1508.22;999.90;;;26.30;99.90;;;;;;5073356;28;20074;-70
2024/01/19 00:50:32;;;;;;;1506.20;999.90;;;26.30;99.90;;;;;;5073527;28;20016;-71
2024/01/19 00:52:59;;;;;;;1523.20;999.90;;;26.30;99.90;;;;;;5073247;28;20031;-71
2024/01/19 00:55:25;;;;;;;1519.30;999.90;;;26.40;99.90;;;;;;5072856;28;20028;-71
2024/01/19 00:57:52;;;;;;;1507.50;999.90;;;26.40;99.90;;;;;;5073370;28;20031;-71
2024/01/19 01:00:18;;;;;;;1488.38;999.90;;;26.40;99.90;;;;;;5073241;28;20029;-70
2024/01/19 01:02:45;;;;;;;1498.63;999.90;;;26.40;99.90;;;;;;5073349;28;20427;-70
2024/01/19 01:05:12;;;;;;;1514.18;999.90;;;26.30;99.90;;;;;;5073174;28;20488;-71
2024/01/19 01:07:39;;;;;;;1514.57;999.90;;;26.40;99.90;;;;;;5073135;28;20454;-71
2024/01/19 01:10:06;;;;;;;1500.43;999.90;;;26.40;99.90;;;;;;5073395;28;20074;-73
2024/01/19 01:12:33;;;;;;;1495.95;999.90;;;26.40;99.90;;;;;;5073318;28;20060;-72
2024/01/19 01:14:59;;;;;;;1504.03;999.90;;;26.40;99.90;;;;;;5073110;28;20016;-72
2024/01/19 01:17:26;;;;;;;1486.80;999.90;;;26.50;99.90;;;;;;5073284;28;20103;-70
2024/01/19 01:19:53;;;;;;;1507.82;999.90;;;26.50;99.90;;;;;;5073167;28;20032;-70
2024/01/19 01:22:19;;;;;;;1521.20;999.90;;;26.50;99.90;;;;;;5076021;28;20032;-71
2024/01/19 01:24:46;;;;;;;1492.07;999.90;;;26.50;99.90;;;;;;5077379;28;20104;-72
2024/01/19 01:27:12;;;;;;;1515.00;999.90;;;26.50;99.90;;;;;;5077224;28;20029;-71
2024/01/19 01:29:39;;;;;;;1513.60;999.90;;;26.60;99.90;;;;;;5076983;28;20021;-70
2024/01/19 01:32:05;;;;;;;1501.47;999.90;;;26.60;99.90;;;;;;5077011;28;20028;-69
2024/01/19 01:34:32;;;;;;;1505.50;999.90;;;26.60;99.90;;;;;;5077100;28;20036;-70
2024/01/19 01:36:59;;;;;;;1515.68;999.90;;;26.70;99.90;;;;;;5076930;28;20025;-69
2024/01/19 01:39:26;;;;;;;1497.72;999.90;;;26.60;99.90;;;;;;5077038;28;20379;-69
2024/01/19 01:41:53;;;;;;;1514.07;999.90;;;26.70;99.90;;;;;;5077092;28;20047;-69
2024/01/19 01:44:19;;;;;;;1503.10;999.90;;;26.60;99.90;;;;;;5077192;28;20017;-71
2024/01/19 01:46:46;;;;;;;1487.65;999.90;;;26.70;99.90;;;;;;5076835;28;20039;-69
2024/01/19 01:49:12;;;;;;;1501.63;999.90;;;26.60;99.90;;;;;;5076718;28;20052;-70
2024/01/19 01:51:39;;;;;;;1505.93;999.90;;;26.70;99.90;;;;;;5076779;28;20013;-70
2024/01/19 01:54:07;;;;;;;1498.88;999.90;;;26.70;99.90;;;;;;5076657;28;20016;-70
2024/01/19 01:56:35;;;;;;;1518.10;999.90;;;26.80;99.90;;;;;;5076644;28;20038;-70
2024/01/19 01:59:01;;;;;;;1452.07;999.90;;;26.80;99.90;;;;;;5076767;28;20413;-70
2024/01/19 02:01:28;;;;;;;1503.63;999.90;;;26.80;99.90;;;;;;5076578;28;20055;-70
2024/01/19 02:03:56;;;;;;;1496.53;999.90;;;26.80;99.90;;;;;;5076681;28;20048;-70
2024/01/19 02:06:23;;;;;;;1489.80;999.90;;;26.90;99.90;;;;;;5076654;28;20528;-70
2024/01/19 02:08:49;;;;;;;1476.60;999.90;;;26.90;99.90;;;;;;5076506;28;20051;-71
2024/01/19 02:11:16;;;;;;;1501.40;999.90;;;26.90;99.90;;;;;;5076673;28;20021;-70
2024/01/19 02:13:43;;;;;;;1505.70;999.90;;;26.90;99.90;;;;;;5076562;28;20021;-71
2024/01/19 02:16:09;;;;;;;1474.05;999.90;;;26.90;99.90;;;;;;5076325;28;20167;-70
2024/01/19 02:18:36;;;;;;;1495.63;999.90;;;27.00;99.90;;;;;;5076484;28;20029;-70
2024/01/19 02:21:03;;;;;;;1510.15;999.90;;;27.00;99.90;;;;;;5076290;28;20125;-70
2024/01/19 02:23:35;;;;;;;1509.65;999.90;;;27.10;99.90;;;;;;5076089;28;20055;-71
2024/01/19 02:26:04;;;;;;;1499.70;999.90;;;27.10;99.90;;;;;;5076351;28;20021;-71
2024/01/19 02:28:30;;;;;;;1496.38;999.90;;;27.10;99.90;;;;;;5076121;28;20055;-70
2024/01/19 02:30:56;;;;;;;1511.90;999.90;;;27.20;99.90;;;;;;5076034;28;20016;-70
2024/01/19 02:33:23;;;;;;;1514.40;999.90;;;27.20;99.90;;;;;;5076073;28;20016;-71
2024/01/19 02:35:49;;;;;;;1513.25;999.90;;;27.20;99.90;;;;;;5076106;28;20478;-70
2024/01/19 02:38:16;;;;;;;1512.82;999.90;;;27.20;99.90;;;;;;5075822;28;20086;-71
2024/01/19 02:40:42;;;;;;;1512.95;999.90;;;27.30;99.90;;;;;;5076016;28;20033;-71
2024/01/19 02:43:09;;;;;;;1490.68;999.90;;;27.30;99.90;;;;;;5075958;28;20070;-70
2024/01/19 02:45:35;;;;;;;1512.65;999.90;;;27.30;99.90;;;;;;5075758;28;20021;-70
2024/01/19 02:48:02;;;;;;;1524.68;999.90;;;27.30;99.90;;;;;;5075874;28;20110;-70
2024/01/19 02:50:28;;;;;;;1509.93;999.90;;;27.30;99.90;;;;;;5076074;28;20473;-70
2024/01/19 02:52:55;;;;;;;1491.63;999.90;;;27.40;99.90;;;;;;5075579;28;20043;-69
2024/01/19 02:55:21;;;;;;;1527.88;999.90;;;27.40;99.90;;;;;;5075721;28;20413;-70
2024/01/19 02:57:48;;;;;;;1507.05;999.90;;;27.40;99.90;;;;;;5075826;28;20025;-70
2024/01/19 03:00:15;;;;;;;1514.53;999.90;;;27.40;99.90;;;;;;5075338;28;20028;-70
2024/01/19 03:02:41;;;;;;;1515.20;999.90;;;27.40;99.90;;;;;;5075763;28;20489;-70
2024/01/19 03:05:08;;;;;;;1521.78;999.90;;;27.40;99.90;;;;;;5075626;28;20529;-70
2024/01/19 03:07:34;;;;;;;1493.32;999.90;;;27.40;99.90;;;;;;5075313;28;20023;-70
2024/01/19 03:10:01;;;;;;;1531.80;999.90;;;27.30;99.90;;;;;;5075726;28;20020;-70
2024/01/19 03:12:27;;;;;;;1491.65;999.90;;;27.40;99.90;;;;;;5075545;28;20527;-70
2024/01/19 03:14:54;;;;;;;1539.40;999.90;;;27.40;99.90;;;;;;5075347;28;20021;-70
2024/01/19 03:17:20;;;;;;;1536.32;999.90;;;27.50;99.90;;;;;;5075409;28;20074;-70
2024/01/19 03:19:47;;;;;;;1504.35;999.90;;;27.50;99.90;;;;;;5075292;28;20055;-70
2024/01/19 03:22:13;;;;;;;1536.45;999.90;;;27.60;99.90;;;;;;5075032;28;20024;-70
2024/01/19 03:24:40;;;;;;;1522.72;999.90;;;27.60;99.90;;;;;;5075047;28;20113;-69
2024/01/19 03:27:06;;;;;;;1507.60;999.90;;;27.70;99.90;;;;;;5074832;28;20052;-71
2024/01/19 03:29:33;;;;;;;1528.82;999.90;;;27.70;99.90;;;;;;5074869;28;20023;-70
2024/01/19 03:32:00;;;;;;;1523.70;999.90;;;27.70;99.90;;;;;;5074648;28;20523;-72
2024/01/19 03:34:26;;;;;;;1528.28;999.90;;;27.70;99.90;;;;;;5074858;28;20021;-72
2024/01/19 03:36:53;;;;;;;1506.55;999.90;;;27.70;99.90;;;;;;5074678;28;20112;-71
2024/01/19 03:39:19;;;;;;;1526.07;999.90;;;27.70;99.90;;;;;;5074494;28;20024;-70
2024/01/19 03:41:46;;;;;;;1517.75;999.90;;;27.70;99.90;;;;;;5074734;28;20027;-71
2024/01/19 03:44:12;;;;;;;1503.65;999.90;;;27.70;99.90;;;;;;5074007;28;20039;-70
2024/01/19 03:46:39;;;;;;;1498.75;999.90;;;27.60;99.90;;;;;;5074262;28;20110;-71
2024/01/19 03:49:05;;;;;;;1497.22;999.90;;;27.60;99.90;;;;;;5072965;28;20404;-70
2024/01/19 03:51:32;;;;;;;1512.00;999.90;;;27.60;99.90;;;;;;5074450;28;20016;-70
2024/01/19 03:53:58;;;;;;;1529.43;999.90;;;27.50;99.90;;;;;;5074567;28;20409;-71
2024/01/19 03:56:25;;;;;;;1529.38;999.90;;;27.50;99.90;;;;;;5074978;28;20020;-72
2024/01/19 03:58:51;;;;;;;1508.43;999.90;;;27.50;99.90;;;;;;5074280;28;20020;-71
2024/01/19 04:01:18;;;;;;;1522.70;999.90;;;27.50;99.90;;;;;;5074415;28;20358;-72
2024/01/19 04:03:44;;;;;;;1529.13;999.90;;;27.50;99.90;;;;;;5073155;28;20071;-72
2024/01/19 04:06:11;;;;;;;1523.25;999.90;;;27.50;99.90;;;;;;5071434;28;20052;-71
2024/01/19 04:08:37;;;;;;;1494.03;999.90;;;27.50;99.90;;;;;;5073928;28;20008;-68
2024/01/19 04:11:04;;;;;;;1506.63;999.90;;;27.50;99.90;;;;;;5072936;28;20429;-67
2024/01/19 04:13:30;;;;;;;1528.85;999.90;;;27.50;99.90;;;;;;5074503;28;20024;-68
2024/01/19 04:15:57;;;;;;;1525.70;999.90;;;27.60;99.90;;;;;;5075089;28;20032;-67
2024/01/19 04:18:24;;;;;;;1512.22;999.90;;;27.60;99.90;;;;;;5074409;28;20107;-66
2024/01/19 04:20:51;;;;;;;1536.10;999.90;;;27.60;99.90;;;;;;5074015;28;20052;-68
2024/01/19 04:23:19;;;;;;;1515.22;999.90;;;27.60;99.90;;;;;;5073934;28;20063;-68
2024/01/19 04:25:45;;;;;;;1509.57;999.90;;;27.60;99.90;;;;;;5074065;28;20028;-66
2024/01/19 04:28:12;;;;;;;1524.28;999.90;;;27.60;99.90;;;;;;5074577;28;20023;-67
2024/01/19 04:30:38;;;;;;;1524.90;999.90;;;27.60;99.90;;;;;;5074218;28;20443;-67
2024/01/19 04:33:05;;;;;;;1514.63;999.90;;;27.70;99.90;;;;;;5074273;28;20024;-67
2024/01/19 04:35:31;;;;;;;1525.70;999.90;;;27.80;99.90;;;;;;5074039;28;20024;-68
2024/01/19 04:37:58;;;;;;;1489.40;999.90;;;27.80;99.90;;;;;;5074067;28;20474;-68
2024/01/19 04:40:24;;;;;;;1510.72;999.90;;;27.80;99.90;;;;;;5074446;28;20054;-68
2024/01/19 04:42:51;;;;;;;1537.00;999.90;;;27.90;99.90;;;;;;5074039;28;20025;-68
2024/01/19 04:45:17;;;;;;;1511.10;999.90;;;27.90;99.90;;;;;;5074147;28;20020;-68
2024/01/19 04:47:44;;;;;;;1524.38;999.90;;;27.80;99.90;;;;;;5073694;28;20511;-67
2024/01/19 04:50:10;;;;;;;1538.60;999.90;;;27.80;99.90;;;;;;5073971;28;20497;-67
2024/01/19 04:52:39;;;;;;;1494.35;999.90;;;27.80;99.90;;;;;;5074159;28;20066;-67
2024/01/19 04:55:05;;;;;;;1497.60;999.90;;;27.90;99.90;;;;;;5073523;28;20021;-67
2024/01/19 04:57:32;;;;;;;1519.85;999.90;;;27.90;99.90;;;;;;5073609;28;20535;-68
2024/01/19 04:59:58;;;;;;;1518.07;999.90;;;27.90;99.90;;;;;;5074172;28;20104;-72
2024/01/19 05:02:25;;;;;;;1529.38;999.90;;;27.90;99.90;;;;;;5073557;28;20016;-71
2024/01/19 05:04:51;;;;;;;1529.10;999.90;;;27.80;99.90;;;;;;5073718;28;20013;-69
2024/01/19 05:07:18;;;;;;;1519.60;999.90;;;27.80;99.90;;;;;;5073594;28;20028;-69
2024/01/19 05:09:45;;;;;;;1517.55;999.90;;;27.70;99.90;;;;;;5073538;28;20111;-71
2024/01/19 05:12:11;;;;;;;1501.50;999.90;;;27.80;99.90;;;;;;5074163;28;20115;-69
2024/01/19 05:14:38;;;;;;;1532.72;999.90;;;27.70;99.90;;;;;;5074004;28;20012;-71
2024/01/19 05:17:04;;;;;;;1495.72;999.90;;;27.80;99.90;;;;;;5073679;28;20029;-70
2024/01/19 05:19:31;;;;;;;1507.05;999.90;;;27.80;99.90;;;;;;5073917;28;20043;-70
2024/01/19 05:21:57;;;;;;;1504.03;999.90;;;27.80;99.90;;;;;;5073716;28;20047;-70
2024/01/19 05:24:24;;;;;;;1504.93;999.90;;;27.80;99.90;;;;;;5073983;28;20033;-71
2024/01/19 05:26:50;;;;;;;1495.13;999.90;;;27.90;99.90;;;;;;5073934;28;20528;-71
2024/01/19 05:29:17;;;;;;;1516.10;999.90;;;27.90;99.90;;;;;;5073652;28;20025;-71
2024/01/19 05:31:43;;;;;;;1508.53;999.90;;;27.90;99.90;;;;;;5073555;28;20074;-71
2024/01/19 05:34:10;;;;;;;1520.72;999.90;;;28.00;99.90;;;;;;5073707;28;20104;-71
2024/01/19 05:36:36;;;;;;;1524.28;999.90;;;28.00;99.90;;;;;;5073500;28;20024;-70
2024/01/19 05:39:03;;;;;;;1494.32;999.90;;;27.90;99.90;;;;;;5073488;28;20024;-72
2024/01/19 05:41:30;;;;;;;1527.68;999.90;;;27.90;99.90;;;;;;5072982;28;20032;-70
2024/01/19 05:43:56;;;;;;;1521.63;999.90;;;27.90;99.90;;;;;;5073341;28;20095;-70
2024/01/19 05:46:22;;;;;;;1517.78;999.90;;;28.00;99.90;;;;;;5073528;28;20056;-70
2024/01/19 05:48:49;;;;;;;1528.63;999.90;;;27.90;99.90;;;;;;5073139;28;20049;-70
2024/01/19 05:51:16;;;;;;;1500.63;999.90;;;27.90;99.90;;;;;;5073498;28;20046;-71
2024/01/19 05:53:43;;;;;;;1513.47;999.90;;;28.00;99.90;;;;;;5073651;28;20032;-71
2024/01/19 05:56:10;;;;;;;1508.03;999.90;;;28.00;99.90;;;;;;5072437;28;20050;-71
2024/01/19 05:58:37;;;;;;;1507.28;999.90;;;27.90;99.90;;;;;;5073587;28;20028;-71
2024/01/19 06:01:05;;;;;;;1527.07;999.90;;;28.00;99.90;;;;;;5073666;28;20031;-68
2024/01/19 06:03:33;;;;;;;1528.97;999.90;;;28.00;99.90;;;;;;5073145;28;20559;-69
2024/01/19 06:06:01;;;;;;;1522.55;999.90;;;28.10;99.90;;;;;;5073545;28;20028;-70
2024/01/19 06:08:30;;;;;;;1502.50;999.90;;;28.10;99.90;;;;;;5076302;28;20070;-70
2024/01/19 06:10:57;;;;;;;1505.78;999.90;;;28.10;99.90;;;;;;5070721;28;20053;-72
2024/01/19 06:13:23;;;;;;;1490.78;999.90;;;28.20;99.90;;;;;;5063670;28;20035;-69
2024/01/19 06:15:50;;;;;;;1532.45;999.90;;;28.20;99.90;;;;;;5076959;28;20495;-72
2024/01/19 06:18:17;;;;;;;1492.60;999.90;;;28.10;99.90;;;;;;5076885;28;20028;-69
2024/01/19 06:20:43;;;;;;;1501.82;999.90;;;28.20;99.90;;;;;;5076971;28;20063;-70
2024/01/19 06:23:11;;;;;;;1512.10;999.90;;;28.10;99.90;;;;;;5077136;28;20020;-70
2024/01/19 06:25:38;;;;;;;1509.85;999.90;;;28.10;99.90;;;;;;5076835;28;20056;-69
2024/01/19 06:28:06;;;;;;;1490.80;999.90;;;28.00;99.90;;;;;;5076399;28;20074;-73
2024/01/19 06:30:33;;;;;;;1523.97;999.90;;;28.00;99.90;;;;;;5076151;28;20029;-74
2024/01/19 06:33:00;;;;;;;1525.30;999.90;;;28.00;99.90;;;;;;5076161;28;20499;-73
2024/01/19 06:35:26;;;;;;;1529.65;999.90;;;28.00;99.90;;;;;;5076074;28;20021;-72
2024/01/19 06:37:53;;;;;;;1511.50;999.90;;;28.00;99.90;;;;;;5076138;28;20025;-73
2024/01/19 06:40:19;;;;;;;1531.00;999.90;;;28.00;99.90;;;;;;5076461;28;20392;-72
2024/01/19 06:42:46;;;;;;;1510.95;999.90;;;28.10;99.90;;;;;;5076563;28;20103;-72
2024/01/19 06:45:16;;;;;;;1526.38;999.90;;;28.10;99.90;;;;;;5071294;28;20020;-72
2024/01/19 06:47:43;;;;;;;1508.78;999.90;;;28.10;99.90;;;;;;5071572;28;20240;-70
2024/01/19 06:50:11;;;;;;;1531.68;999.90;;;28.10;99.90;;;;;;5075484;28;20058;-71
2024/01/19 06:52:37;;;;;;;1527.13;999.90;;;28.10;99.90;;;;;;5075304;28;20017;-72
2024/01/19 06:55:05;;;;;;;1520.25;999.90;;;28.10;99.90;;;;;;5075692;28;20386;-71
2024/01/19 06:57:32;;;;;;;1524.13;999.90;;;28.10;99.90;;;;;;5075357;28;20539;-72
2024/01/19 06:59:58;;;;;;;1518.72;999.90;;;28.20;99.90;;;;;;5075256;28;20016;-72
2024/01/19 07:02:25;;;;;;;1529.75;999.90;;;28.10;99.90;;;;;;5074798;28;20013;-68
2024/01/19 07:04:51;;;;;;;1517.82;999.90;;;28.00;99.90;;;;;;5074920;28;20432;-69
2024/01/19 07:07:18;;;;;;;1497.78;999.90;;;28.00;99.90;;;;;;5075014;28;20020;-69
2024/01/19 07:09:44;;;;;;;1515.63;999.90;;;28.00;99.90;;;;;;5075042;28;20013;-69
2024/01/19 07:12:12;;;;;;;1534.15;999.90;;;28.00;99.90;;;;;;5074389;28;20017;-71
2024/01/19 07:14:38;;;;;;;1494.68;999.90;;;28.00;99.90;;;;;;5074925;28;20036;-70
2024/01/19 07:17:05;;;;;;;1531.15;999.90;;;28.00;99.90;;;;;;5075506;28;20028;-72
2024/01/19 07:19:31;;;;;;;1517.05;999.90;;;28.00;99.90;;;;;;5074102;28;20369;-71
2024/01/19 07:21:57;;;;;;;1517.38;999.90;;;28.00;99.90;;;;;;5074757;28;20017;-71
2024/01/19 07:24:24;;;;;;;1503.13;999.90;;;28.00;99.90;;;;;;5074442;28;20048;-72
2024/01/19 07:26:50;;;;;;;1526.03;999.90;;;28.10;99.90;;;;;;5074595;28;20025;-75
2024/01/19 07:29:18;;;;;;;1519.50;999.90;;;28.10;99.90;;;;;;5074316;28;20028;-71
2024/01/19 07:31:44;;;;;;;1522.80;999.90;;;28.10;99.90;;;;;;5074409;28;20040;-72
2024/01/19 07:34:10;;;;;;;1530.38;999.90;;;28.00;99.90;;;;;;5074426;28;20055;-71
2024/01/19 07:36:37;;;;;;;1523.15;999.90;;;28.10;99.90;;;;;;5074092;28;20040;-70
2024/01/19 07:39:04;;;;;;;1537.57;999.90;;;28.10;99.90;;;;;;5074030;28;20036;-71
2024/01/19 07:41:30;;;;;;;1497.72;999.90;;;28.10;99.90;;;;;;5074428;28;20025;-70
2024/01/19 07:43:57;;;;;;;1501.53;999.90;;;28.20;99.90;;;;;;5074083;28;20481;-75
2024/01/19 07:46:23;;;;;;;1511.80;999.90;;;28.00;99.90;;;;;;5073921;28;20036;-71
2024/01/19 07:48:50;;;;;;;1509.57;999.90;;;28.00;99.90;;;;;;5073884;28;20040;-72
2024/01/19 07:51:16;;;;;;;1526.80;999.90;;;28.00;99.90;;;;;;5074241;28;20036;-72
2024/01/19 07:53:43;;;;;;;1514.38;999.90;;;27.90;99.90;;;;;;5075235;28;20369;-73
2024/01/19 07:56:09;;;;;;;1517.60;999.90;;;27.90;99.90;;;;;;5072193;28;20024;-73
2024/01/19 07:58:36;;;;;;;1520.05;999.90;;;27.90;99.90;;;;;;5075126;28;20481;-73
2024/01/19 08:01:04;;;;;;;1521.78;999.90;;;27.90;99.90;;;;;;5075308;28;20469;-71
2024/01/19 08:03:31;;;;;;;1526.07;999.90;;;27.90;99.90;;;;;;5072421;28;20468;-70
2024/01/19 08:05:57;;;;;;;1524.93;999.90;;;27.90;99.90;;;;;;5075061;28;20032;-71
2024/01/19 08:08:24;;;;;;;1529.47;999.90;;;27.90;99.90;;;;;;5075062;28;20032;-72
2024/01/19 08:10:50;;;;;;;1503.65;999.90;;;27.80;99.90;;;;;;5074319;28;20115;-73
2024/01/19 08:13:17;;;;;;;1521.07;999.90;;;27.90;99.90;;;;;;5074503;28;20021;-72
2024/01/19 08:15:43;;;;;;;1534.22;999.90;;;27.90;99.90;;;;;;5074486;28;20107;-71
2024/01/19 08:18:10;;;;;;;1529.30;999.90;;;28.00;99.90;;;;;;5071098;28;20012;-70
2024/01/19 08:20:36;;;;;;;1483.25;999.90;;;27.90;99.90;;;;;;5073834;28;20475;-72
2024/01/19 08:23:03;;;;;;;1520.05;999.90;;;28.00;99.90;;;;;;5073744;28;20020;-72
2024/01/19 08:25:30;;;;;;;1534.65;999.90;;;27.90;99.90;;;;;;5071010;28;20107;-71
2024/01/19 08:27:56;;;;;;;1529.03;999.90;;;27.90;99.90;;;;;;5073538;28;20012;-71
2024/01/19 08:30:23;;;;;;;1535.68;999.90;;;28.00;99.90;;;;;;5073446;28;20069;-71
2024/01/19 08:32:49;;;;;;;1529.68;999.90;;;28.00;99.90;;;;;;5073620;28;20020;-74
2024/01/19 08:35:16;;;;;;;1506.35;999.90;;;28.00;99.90;;;;;;5073191;28;20021;-71
2024/01/19 08:37:42;;;;;;;1527.47;999.90;;;28.00;99.90;;;;;;5073364;28;20059;-73
2024/01/19 08:40:11;;;;;;;1523.32;999.90;;;28.00;99.90;;;;;;5070461;28;20109;-73
2024/01/19 08:42:38;;;;;;;1521.10;999.90;;;28.00;99.90;;;;;;5073346;28;20023;-74
2024/01/19 08:45:05;;;;;;;1523.32;999.90;;;28.00;99.90;;;;;;5073313;28;20055;-73
2024/01/19 08:47:32;;;;;;;1509.85;999.90;;;27.90;99.90;;;;;;5070759;28;20025;-71
2024/01/19 08:50:00;;;;;;;1528.43;999.90;;;28.00;99.90;;;;;;5073083;28;20035;-73
2024/01/19 08:52:32;;;;;;;1506.72;999.90;;;28.00;99.90;;;;;;5072321;28;20015;-72
2024/01/19 08:54:58;;;;;;;1501.47;999.90;;;28.00;99.90;;;;;;5072653;28;20028;-70
2024/01/19 08:57:25;;;;;;;1511.40;999.90;;;28.00;99.90;;;;;;5073112;28;20078;-70
2024/01/19 08:59:52;;;;;;;1528.38;999.90;;;28.00;99.90;;;;;;5073107;28;20108;-71
2024/01/19 09:02:19;;;;;;;1523.82;999.90;;;28.10;99.90;;;;;;5070297;28;20025;-71
2024/01/19 09:04:45;;;;;;;1517.88;999.90;;;28.10;99.90;;;;;;5070802;28;20027;-71
2024/01/19 09:07:12;;;;;;;1514.47;999.90;;;28.00;99.90;;;;;;5071161;28;20070;-71
2024/01/19 09:09:40;;;;;;;1514.10;999.90;;;28.10;99.90;;;;;;5069483;28;20027;-68
2024/01/19 09:12:07;;;;;;;1510.15;999.90;;;28.10;99.90;;;;;;5071187;28;20633;-69
2024/01/19 09:14:34;;;;;;;1526.18;999.90;;;28.10;99.90;;;;;;5068614;28;20124;-68
2024/01/19 09:17:00;;;;;;;1538.03;999.90;;;28.20;99.90;;;;;;5071086;28;20016;-69
2024/01/19 09:19:27;;;;;;;1526.45;999.90;;;28.20;99.90;;;;;;5071379;28;20032;-68
2024/01/19 09:21:53;;;;;;;1394.25;999.90;;;28.10;99.90;;;;;;5071548;28;20024;-74
2024/01/19 09:24:20;;;;;;;1515.05;999.90;;;28.10;99.90;;;;;;5069520;28;20016;-69
2024/01/19 09:26:46;;;;;;;1533.53;999.90;;;28.10;99.90;;;;;;5071930;28;20138;-70
2024/01/19 09:29:13;;;;;;;1515.03;999.90;;;28.20;99.90;;;;;;5071356;28;20359;-71
2024/01/19 09:31:43;;;;;;;1505.32;999.90;;;28.20;99.90;;;;;;5074043;28;20369;-70
2024/01/19 09:34:10;;;;;;;1513.63;999.90;;;28.10;99.90;;;;;;5072679;28;20651;-73
2024/01/19 09:36:41;;;;;;;1501.65;999.90;;;28.20;99.90;;;;;;5071567;28;20032;-70
2024/01/19 09:39:08;;;;;;;1528.35;999.90;;;28.20;99.90;;;;;;5069877;28;20419;-68
2024/01/19 09:41:38;;;;;;;1531.65;999.90;;;28.20;99.90;;;;;;5071632;28;20543;-70
2024/01/19 09:44:10;;;;;;;1535.13;999.90;;;28.20;99.90;;;;;;5075525;28;20473;-73
2024/01/19 09:46:58;;;;;;;1529.75;999.90;;;28.20;99.90;;;;;;5075403;28;20099;-71
2024/01/19 09:49:47;;;;;;;1520.43;999.90;;;28.20;99.90;;;;;;5075928;28;20066;-71
2024/01/19 09:52:33;;;;;;;1525.40;999.90;;;28.20;99.90;;;;;;5071290;28;20078;-70
2024/01/19 09:55:00;;;;;;;1532.53;999.90;;;28.20;99.90;;;;;;5075977;28;20024;-70
2024/01/19 09:57:29;;;;;;;1538.00;999.90;;;28.30;99.90;;;;;;5076233;28;20054;-71
2024/01/19 09:59:55;;;;;;;1512.13;999.90;;;28.30;99.90;;;;;;5076235;28;20074;-73
2024/01/19 10:02:25;;;;;;;1533.40;999.90;;;28.30;99.90;;;;;;5072549;28;20029;-70
2024/01/19 10:04:53;;;;;;;1541.03;999.90;;;28.30;99.90;;;;;;5074327;28;20412;-71
2024/01/19 10:07:20;;;;;;;1515.53;999.90;;;28.30;99.90;;;;;;5074019;28;20020;-72
2024/01/19 10:09:51;;;;;;;1495.88;999.90;;;28.30;99.90;;;;;;5073621;28;20420;-71
2024/01/19 10:12:22;;;;;;;1535.23;999.90;;;28.30;99.90;;;;;;5074953;28;20065;-73
2024/01/19 10:14:49;;;;;;;1570.57;999.90;;;28.30;99.90;;;;;;5073478;28;20052;-73
2024/01/19 10:17:17;;;;;;;1569.78;999.90;;;28.20;99.90;;;;;;5074796;28;20268;-70
2024/01/19 10:19:44;;;;;;;1559.95;999.90;;;28.20;99.90;;;;;;5076351;28;20028;-72
2024/01/19 10:22:29;;;;;;;1565.55;999.90;;;28.20;99.90;;;;;;5075995;28;20017;-70
2024/01/19 10:25:08;;;;;;;1566.93;999.90;;;28.20;99.90;;;;;;5076240;28;20017;-69
2024/01/19 10:27:48;;;;;;;1540.30;999.90;;;28.30;99.90;;;;;;5074479;28;20043;-72
2024/01/19 10:30:16;;;;;;;1556.88;999.90;;;28.30;99.90;;;;;;5075733;28;20024;-71
2024/01/19 10:32:44;;;;;;;1558.90;999.90;;;28.20;99.90;;;;;;5075433;28;20024;-68
2024/01/19 10:35:14;;;;;;;1520.75;999.90;;;28.20;99.90;;;;;;5075559;28;20020;-69
2024/01/19 10:37:41;;;;;;;1523.13;999.90;;;28.30;99.90;;;;;;5065644;28;20024;-70
2024/01/19 10:40:20;;;;;;;1519.70;999.90;;;28.40;99.90;;;;;;5073275;28;20031;-70
2024/01/19 10:42:51;;;;;;;1556.13;999.90;;;28.40;99.90;;;;;;5074111;28;20024;-71
2024/01/19 10:45:22;;;;;;;1517.18;999.90;;;28.40;99.90;;;;;;5073566;28;20449;-71
2024/01/19 10:47:51;;;;;;;1523.60;999.90;;;28.40;99.90;;;;;;5075394;28;20051;-70
2024/01/19 10:50:19;;;;;;;1538.63;999.90;;;28.40;99.90;;;;;;5075461;28;20028;-70
2024/01/19 10:52:48;;;;;;;1517.18;999.90;;;28.40;99.90;;;;;;5075105;28;20070;-71
2024/01/19 10:55:18;;;;;;;1503.10;999.90;;;28.40;99.90;;;;;;5075303;28;20108;-72
2024/01/19 10:57:46;;;;;;;1540.88;999.90;;;28.40;99.90;;;;;;5075278;28;20020;-70
2024/01/19 11:00:20;;;;;;;1537.85;999.90;;;28.30;99.90;;;;;;5073001;28;20047;-68
2024/01/19 11:02:49;;;;;;;1526.10;999.90;;;28.30;99.90;;;;;;5073464;28;20465;-71
2024/01/19 11:05:19;;;;;;;1538.10;999.90;;;28.30;99.90;;;;;;5075379;28;20024;-73
2024/01/19 11:07:49;;;;;;;1516.95;999.90;;;28.30;99.90;;;;;;5073269;28;20081;-72
2024/01/19 11:10:16;;;;;;;1523.32;999.90;;;28.30;99.90;;;;;;5071304;28;20109;-69
2024/01/19 11:12:48;;;;;;;1542.45;999.90;;;28.30;99.90;;;;;;5072608;28;20470;-69
2024/01/19 11:15:20;;;;;;;;;;;28.40;99.90;;;;;;5075883;28;20418;-71
2024/01/19 11:17:48;;;;;;;1526.38;999.90;;;28.30;99.90;;;;;;5073323;28;20288;-68
2024/01/19 11:20:14;;;;;;;1545.35;999.90;;;28.30;99.90;;;;;;5073860;28;20036;-71
2024/01/19 11:22:42;;;;;;;1521.32;999.90;;;28.40;99.90;;;;;;5072398;28;20492;-71
2024/01/19 11:25:13;;;;;;;1532.50;999.90;;;28.40;99.90;;;;;;5074302;28;20028;-72
2024/01/19 11:27:49;;;;;;;1541.28;999.90;;;28.30;99.90;;;;;;5072193;28;20052;-73
2024/01/19 11:30:43;;;;;;;1535.53;999.90;;;28.20;99.90;;;;;;5073845;28;20025;-70
2024/01/19 11:33:20;;;;;;;1536.32;999.90;;;28.20;99.90;;;;;;5073800;28;20063;-73
2024/01/19 11:35:49;;;;;;;1517.90;999.90;;;28.10;99.90;;;;;;5073224;28;20024;-72
2024/01/19 11:38:46;;;;;;;1527.78;999.90;;;28.00;99.90;;;;;;5073516;28;20090;-72
2024/01/19 11:41:33;;;;;;;1515.13;999.90;;;28.10;99.90;;;;;;5064228;28;20512;-73
2024/01/19 11:44:03;;;;;;;1511.05;999.90;;;28.00;99.90;;;;;;5071979;28;20032;-71
2024/01/19 11:46:41;;;;;;;1504.45;999.90;;;28.00;99.90;;;;;;5073843;28;20040;-71
2024/01/19 11:49:07;;;;;;;1508.90;999.90;;;28.00;99.90;;;;;;5073209;28;20036;-70
2024/01/19 11:51:35;;;;;;;1492.97;999.90;;;28.00;99.90;;;;;;5073978;28;20048;-70
2024/01/19 11:54:04;;;;;;;1513.45;999.90;;;28.00;99.90;;;;;;5075171;28;20378;-71
2024/01/19 11:56:31;;;;;;;1530.68;999.90;;;27.90;99.90;;;;;;5073753;28;20093;-70
2024/01/19 11:58:58;;;;;;;1511.68;999.90;;;28.00;99.90;;;;;;5073758;28;20020;-72
2024/01/19 12:01:25;;;;;;;1500.03;999.90;;;28.00;99.90;;;;;;5073643;28;20021;-71